»·PEaware :: N448RA KBFL-KSBA

N448RA :: KBFL-KSBA

FLIGHT INFORMATION

Flight Status: Arrived
Operator: Privately registered:
United States
More flights under this callsign
Pilot: Scott M. (16181)
Aircraft: Unknown
(KODI)
More flights by this aircraft type
Origin: KBFL Meadows
United States
Destination: KSBA Santa Barbara Mun
United States
More flights between these airports :: More routes between these airports
Route:
File this flight plan on PilotEdge
Remarks:
Altitude:
(Current/Filed)
8,500ft
Speed:
(Current/Filed)
125kts
Departed: 07-Oct-17 08:28 AM
Arrived: 07-Oct-17 09:14 AM
Distance/Time
Traveled:
72nm/0:46
Distance/Time
To Go:
Arrived

Flight Plot

Page will automatically refresh every two minutes.


Map Options




Map Legend


Flown Route
Filed Route
Departure Airport
Arrival Airport
Navaid (VOR, NDB)
Fix

Horizontal Profiles

Position Reports

Time Latitude Longitude Heading Altitude Ground
Speed
07-Oct-17 08:18 35.429382 -119.046101 225 510ft 0kts
07-Oct-17 08:19 35.429382 -119.046101 225 510ft 0kts
07-Oct-17 08:20 35.429382 -119.046101 225 510ft 0kts
07-Oct-17 08:21 35.429382 -119.046101 225 510ft 0kts
07-Oct-17 08:22 35.429382 -119.046101 225 510ft 0kts
07-Oct-17 08:23 35.429382 -119.046101 225 511ft 0kts
07-Oct-17 08:24 35.429382 -119.046101 225 511ft 0kts
07-Oct-17 08:25 35.429382 -119.046102 225 511ft 0kts
07-Oct-17 08:26 35.429382 -119.046102 225 511ft 0kts
07-Oct-17 08:27 35.429382 -119.046102 225 511ft 0kts
07-Oct-17 08:28 35.429382 -119.046102 225 511ft 0kts
07-Oct-17 08:29 35.427620 -119.046429 136 511ft 20kts
07-Oct-17 08:30 35.425806 -119.044733 208 511ft 0kts
07-Oct-17 08:31 35.425647 -119.046081 298 511ft 40kts
07-Oct-17 08:32 35.443791 -119.068438 318 1299ft 141kts
07-Oct-17 08:33 35.469112 -119.089715 291 2372ft 138kts
07-Oct-17 08:34 35.457844 -119.114203 215 3033ft 146kts
07-Oct-17 08:35 35.432555 -119.133629 211 3749ft 137kts
07-Oct-17 08:36 35.407247 -119.152206 211 4576ft 138kts
07-Oct-17 08:37 35.377129 -119.173924 211 5536ft 140kts
07-Oct-17 08:38 35.354998 -119.189743 211 6234ft 140kts
07-Oct-17 08:39 35.329169 -119.208144 211 7051ft 139kts
07-Oct-17 08:40 35.304737 -119.225514 212 7828ft 138kts
07-Oct-17 08:41 35.277384 -119.244969 212 8514ft 154kts
07-Oct-17 08:42 35.251047 -119.263650 212 8499ft 149kts
07-Oct-17 08:43 35.224177 -119.282684 212 8501ft 144kts
07-Oct-17 08:44 35.198537 -119.300848 212 8502ft 142kts
07-Oct-17 08:45 35.173015 -119.318922 212 8502ft 142kts
07-Oct-17 08:46 35.147369 -119.337069 212 8502ft 142kts
07-Oct-17 08:47 35.121646 -119.355256 212 8502ft 142kts
07-Oct-17 08:48 35.094886 -119.374169 212 8503ft 145kts
07-Oct-17 08:49 35.068017 -119.393138 212 8503ft 145kts
07-Oct-17 08:50 35.041328 -119.411964 212 8502ft 145kts
07-Oct-17 08:51 35.013501 -119.431591 212 8493ft 146kts
07-Oct-17 08:52 34.985584 -119.451260 211 8477ft 146kts
07-Oct-17 08:53 34.958278 -119.470478 211 8458ft 146kts
07-Oct-17 08:54 34.930854 -119.489763 211 8436ft 146kts
07-Oct-17 08:55 34.903517 -119.508970 211 8411ft 146kts
07-Oct-17 08:56 34.879433 -119.525877 211 8387ft 146kts
07-Oct-17 08:57 34.852106 -119.545034 211 8386ft 145kts
07-Oct-17 08:58 34.824825 -119.564152 211 8388ft 145kts
07-Oct-17 08:59 34.797607 -119.583217 211 8389ft 145kts
07-Oct-17 09:00 34.770683 -119.602063 211 8388ft 145kts
07-Oct-17 09:01 34.744068 -119.620673 211 8386ft 142kts
07-Oct-17 09:02 34.717846 -119.638990 211 8483ft 138kts
07-Oct-17 09:03 34.691825 -119.657182 210 8220ft 145kts
07-Oct-17 09:04 34.665727 -119.675380 210 7928ft 142kts
07-Oct-17 09:05 34.639786 -119.693467 210 7580ft 140kts
07-Oct-17 09:06 34.614040 -119.711409 210 6933ft 143kts
07-Oct-17 09:07 34.588987 -119.728816 210 6476ft 117kts
07-Oct-17 09:08 34.569291 -119.743189 214 6200ft 108kts
07-Oct-17 09:09 34.550119 -119.758329 231 5781ft 114kts
07-Oct-17 09:10 34.534075 -119.782252 233 5797ft 120kts
07-Oct-17 09:11 34.510852 -119.793358 180 5143ft 152kts
07-Oct-17 09:12 34.480697 -119.789099 164 3779ft 149kts
07-Oct-17 09:13 34.454462 -119.782951 174 2569ft 102kts
07-Oct-17 09:14 34.433397 -119.782816 185 1464ft 93kts
07-Oct-17 09:15 34.428615 -119.800414 267 733ft 73kts
07-Oct-17 09:16 34.428217 -119.820483 267 376ft 86kts
07-Oct-17 09:17 34.427789 -119.839731 268 18ft 49kts
07-Oct-17 09:18 34.426886 -119.841433 166 17ft 0kts
07-Oct-17 09:19 34.426657 -119.839744 89 18ft 23kts
07-Oct-17 09:20 34.426584 -119.836135 174 18ft 8kts
07-Oct-17 09:21 34.426077 -119.836305 271 18ft 0kts

Navigation Log

Ident Type
1. KBFL Airport
2. KSBA Airport